Time;durP1;ratioP1;P1;durP2;ratioP2;P2;SDS_P1;SDS_P2;PMS_P1;PMS_P2;Temp;Humidity;BMP_temperature;BMP_pressure;BME280_temperature;BME280_humidity;BME280_pressure;Samples;Min_cycle;Max_cycle;Signal;HPM_P1;HPM_P2
2023/08/28 00:01:27;;;;;;;3.95;3.55;;;;;;;12.44;100.00;101129.00;5040466;28;20515;-51
2023/08/28 00:03:53;;;;;;;5.93;3.85;;;;;;;12.43;100.00;101121.13;5044014;28;20111;-51
2023/08/28 00:06:19;;;;;;;5.32;3.63;;;;;;;12.43;100.00;101115.78;5042004;28;20021;-52
2023/08/28 00:08:44;;;;;;;7.03;3.92;;;;;;;12.44;100.00;101120.13;5043956;28;20029;-52
2023/08/28 00:11:10;;;;;;;4.00;3.67;;;;;;;12.39;100.00;101118.69;5040941;28;20040;-51
2023/08/28 00:13:35;;;;;;;4.68;3.55;;;;;;;12.36;100.00;101121.59;5041757;28;20393;-52
2023/08/28 00:16:00;;;;;;;5.43;3.80;;;;;;;12.39;100.00;101117.84;5044340;28;20047;-53
2023/08/28 00:18:26;;;;;;;4.55;4.15;;;;;;;12.37;100.00;101120.63;5040803;28;20348;-51
2023/08/28 00:20:52;;;;;;;3.95;3.63;;;;;;;12.35;100.00;101119.06;5044499;28;20083;-52
2023/08/28 00:23:17;;;;;;;6.32;3.88;;;;;;;12.32;100.00;101109.50;5045760;28;20446;-52
2023/08/28 00:25:43;;;;;;;4.13;3.67;;;;;;;12.32;100.00;101114.84;5048063;28;20033;-50
2023/08/28 00:28:08;;;;;;;4.63;3.90;;;;;;;12.28;100.00;101104.53;5044908;28;20030;-52
2023/08/28 00:30:33;;;;;;;4.57;3.97;;;;;;;12.28;100.00;101099.22;5045931;28;20036;-52
2023/08/28 00:32:59;;;;;;;4.80;3.92;;;;;;;12.26;100.00;101102.00;5043289;28;20479;-53
2023/08/28 00:35:24;;;;;;;5.55;3.80;;;;;;;12.27;100.00;101109.00;5053196;28;20017;-54
2023/08/28 00:37:49;;;;;;;4.63;4.20;;;;;;;12.27;100.00;101108.16;5045428;28;20041;-51
2023/08/28 00:40:16;;;;;;;4.50;4.03;;;;;;;12.24;100.00;101103.94;5043146;28;20026;-53
2023/08/28 00:42:42;;;;;;;4.47;3.97;;;;;;;12.23;100.00;101101.41;5048349;28;20474;-53
2023/08/28 00:45:07;;;;;;;4.72;4.38;;;;;;;12.23;100.00;101096.06;5050770;28;20028;-52
2023/08/28 00:47:34;;;;;;;7.25;4.40;;;;;;;12.16;100.00;101090.38;5045517;28;20022;-52
2023/08/28 00:49:59;;;;;;;5.45;4.10;;;;;;;12.18;100.00;101094.59;5045782;28;20022;-51
2023/08/28 00:52:25;;;;;;;4.47;4.18;;;;;;;12.15;100.00;101094.84;5044001;28;20017;-51
2023/08/28 00:54:51;;;;;;;5.20;4.70;;;;;;;12.11;100.00;101105.88;5046110;28;20467;-52
2023/08/28 00:57:17;;;;;;;6.13;4.00;;;;;;;12.11;100.00;101103.22;5044822;28;20025;-52
2023/08/28 00:59:44;;;;;;;5.65;4.53;;;;;;;12.08;100.00;101103.47;5046201;28;20025;-53
2023/08/28 01:02:09;;;;;;;5.90;4.30;;;;;;;12.10;100.00;101098.84;5044760;28;20026;-50
2023/08/28 01:04:35;;;;;;;5.07;4.50;;;;;;;12.08;100.00;101101.63;5047257;28;20474;-51
2023/08/28 01:07:16;;;;;;;5.75;4.57;;;;;;;12.06;100.00;101092.06;5046666;28;20029;-51
2023/08/28 01:10:03;;;;;;;4.32;3.95;;;;;;;12.08;100.00;101092.81;5046967;28;20036;-52
2023/08/28 01:12:39;;;;;;;6.93;4.70;;;;;;;12.05;100.00;101093.03;5040222;28;20104;-52
2023/08/28 01:15:15;;;;;;;8.75;4.88;;;;;;;11.99;100.00;101094.34;5043036;28;20068;-52
2023/08/28 01:17:42;;;;;;;7.35;4.90;;;;;;;12.00;100.00;101104.88;5048880;28;20037;-52
2023/08/28 01:20:15;;;;;;;6.15;4.88;;;;;;;11.95;100.00;101095.59;5041529;28;20051;-51
2023/08/28 01:23:07;;;;;;;6.45;5.30;;;;;;;11.97;100.00;101104.28;5042621;28;20060;-52
2023/08/28 01:25:33;;;;;;;6.68;5.13;;;;;;;11.93;100.00;101094.84;5044705;28;20067;-52
2023/08/28 01:27:59;;;;;;;5.38;4.85;;;;;;;11.89;100.00;101083.56;5045194;28;20432;-52
2023/08/28 01:30:25;;;;;;;6.90;4.90;;;;;;;11.88;100.00;101092.53;5049613;28;20395;-51
2023/08/28 01:32:51;;;;;;;6.35;5.13;;;;;;;11.85;100.00;101088.28;5043310;28;20028;-52
2023/08/28 01:35:24;;;;;;;8.38;5.68;;;;;;;11.82;100.00;101090.31;5043848;28;20390;-52
2023/08/28 01:38:16;;;;;;;6.55;5.40;;;;;;;11.77;100.00;101076.53;5048902;28;20034;-52
2023/08/28 01:41:00;;;;;;;8.65;5.47;;;;;;;11.84;100.00;101088.41;5046540;28;20441;-50
2023/08/28 01:43:30;;;;;;;8.63;5.72;;;;;;;11.80;100.00;101084.28;5043822;28;20392;-50
2023/08/28 01:45:56;;;;;;;5.70;5.20;;;;;;;11.83;100.00;101084.06;5045067;28;20028;-50
2023/08/28 01:48:22;;;;;;;6.40;5.32;;;;;;;11.79;100.00;101074.59;5043398;28;20096;-51
2023/08/28 01:50:47;;;;;;;7.28;5.53;;;;;;;11.75;100.00;101073.16;5045343;28;20057;-51
2023/08/28 01:53:13;;;;;;;7.78;5.70;;;;;;;11.73;100.00;101073.28;5046382;28;20032;-51
2023/08/28 01:55:44;;;;;;;7.22;5.88;;;;;;;11.73;100.00;101072.44;5044334;28;20032;-51
2023/08/28 01:58:09;;;;;;;8.52;5.45;;;;;;;11.72;100.00;101079.53;5044729;28;20021;-52
2023/08/28 02:00:35;;;;;;;6.25;5.65;;;;;;;11.73;100.00;101072.44;5047909;28;20036;-54
2023/08/28 02:03:00;;;;;;;7.20;5.70;;;;;;;11.65;100.00;101062.38;5043504;28;20495;-51
2023/08/28 02:05:26;;;;;;;7.68;6.00;;;;;;;11.65;100.00;101071.19;5043213;28;20029;-52
2023/08/28 02:07:51;;;;;;;6.78;6.00;;;;;;;11.65;100.00;101068.53;5046065;28;20479;-51
2023/08/28 02:10:17;;;;;;;7.50;5.88;;;;;;;11.64;100.00;101064.19;5046260;28;20027;-52
2023/08/28 02:12:42;;;;;;;7.93;6.05;;;;;;;11.61;100.00;101059.13;5045776;28;20032;-51
2023/08/28 02:15:08;;;;;;;7.32;5.97;;;;;;;11.60;100.00;101057.41;5045966;28;20058;-51
2023/08/28 02:17:33;;;;;;;7.10;5.57;;;;;;;11.60;100.00;101054.75;5051059;28;20033;-51
2023/08/28 02:19:58;;;;;;;8.70;6.20;;;;;;;11.59;100.00;101055.72;5049436;28;20021;-51
2023/08/28 02:22:23;;;;;;;7.15;5.85;;;;;;;11.59;100.00;101061.06;5037250;28;20497;-52
2023/08/28 02:24:49;;;;;;;9.05;6.22;;;;;;;11.56;100.00;101063.94;5046475;28;20580;-51
2023/08/28 02:27:14;;;;;;;7.40;6.55;;;;;;;11.55;100.00;101069.38;5046576;28;20466;-52
2023/08/28 02:29:39;;;;;;;6.55;5.95;;;;;;;11.54;100.00;101068.53;5047439;28;20021;-51
2023/08/28 02:32:05;;;;;;;8.18;6.10;;;;;;;11.48;100.00;101076.97;5047492;28;20020;-51
2023/08/28 02:34:30;;;;;;;7.70;6.47;;;;;;;11.48;100.00;101069.84;5046135;28;20104;-51
2023/08/28 02:36:55;;;;;;;9.82;6.63;;;;;;;11.43;100.00;101066.69;5044604;28;20009;-53
2023/08/28 02:39:21;;;;;;;8.20;6.40;;;;;;;11.45;100.00;101066.56;5044067;28;20099;-52
2023/08/28 02:41:46;;;;;;;9.20;6.47;;;;;;;11.45;100.00;101062.09;5046605;28;20107;-52
2023/08/28 02:44:11;;;;;;;7.35;6.40;;;;;;;11.41;100.00;101054.50;5047822;28;20108;-52
2023/08/28 02:46:37;;;;;;;7.20;6.50;;;;;;;11.40;100.00;101071.41;5044669;28;20082;-52
2023/08/28 02:49:02;;;;;;;9.18;6.35;;;;;;;11.38;100.00;101073.34;5049303;28;20453;-52
2023/08/28 02:51:27;;;;;;;8.00;6.68;;;;;;;11.36;100.00;101069.94;5043134;28;20382;-53
2023/08/28 02:53:53;;;;;;;9.40;6.97;;;;;;;11.33;100.00;101076.34;5044416;28;20063;-51
2023/08/28 02:56:24;;;;;;;9.55;6.97;;;;;;;11.34;100.00;101075.38;5043261;28;20116;-51
2023/08/28 02:58:50;;;;;;;10.48;7.32;;;;;;;11.30;100.00;101076.56;5045344;28;20025;-51
2023/08/28 03:01:17;;;;;;;7.80;7.00;;;;;;;11.27;100.00;101083.00;5048212;28;20525;-52
2023/08/28 03:03:43;;;;;;;7.85;6.55;;;;;;;11.28;100.00;101076.69;5045786;28;20548;-52
2023/08/28 03:06:08;;;;;;;8.40;6.43;;;;;;;11.27;100.00;101082.13;5047670;28;20025;-51
2023/08/28 03:08:33;;;;;;;7.57;6.82;;;;;;;11.27;100.00;101087.44;5042037;28;20067;-52
2023/08/28 03:10:58;;;;;;;7.50;6.75;;;;;;;11.25;100.00;101090.22;5043017;28;20028;-51
2023/08/28 03:13:24;;;;;;;8.43;7.57;;;;;;;11.24;100.00;101098.28;5046065;28;20491;-51
2023/08/28 03:15:49;;;;;;;8.85;7.25;;;;;;;11.25;100.00;101089.38;5043278;28;20036;-53
2023/08/28 03:18:14;;;;;;;9.23;7.28;;;;;;;11.24;100.00;101093.84;5042911;28;20029;-53
2023/08/28 03:20:41;;;;;;;8.13;7.05;;;;;;;11.24;100.00;101092.97;5044995;28;20036;-52
2023/08/28 03:23:09;;;;;;;7.75;6.70;;;;;;;11.24;100.00;101092.97;5042804;28;20100;-51
2023/08/28 03:25:34;;;;;;;7.93;7.22;;;;;;;11.21;100.00;101091.41;5041754;28;20028;-52
2023/08/28 03:28:01;;;;;;;11.05;7.72;;;;;;;11.18;100.00;101096.97;5042474;28;20025;-54
2023/08/28 03:30:27;;;;;;;10.95;7.55;;;;;;;11.19;100.00;101092.47;5043509;28;20024;-55
2023/08/28 03:32:52;;;;;;;10.80;8.52;;;;;;;11.20;100.00;101091.53;5045538;28;20078;-52
2023/08/28 03:35:18;;;;;;;9.13;8.20;;;;;;;11.22;100.00;101095.75;5041816;28;20032;-53
2023/08/28 03:37:44;;;;;;;10.27;8.50;;;;;;;11.23;100.00;101101.94;5041326;28;20491;-53
2023/08/28 03:40:10;;;;;;;11.02;8.70;;;;;;;11.20;100.00;101100.34;5044705;28;20103;-51
2023/08/28 03:42:35;;;;;;;12.05;7.90;;;;;;;11.26;100.00;101117.66;5046514;28;20478;-51
2023/08/28 03:45:00;;;;;;;9.93;8.15;;;;;;;11.26;100.00;101110.53;5048045;28;20057;-53
2023/08/28 03:47:26;;;;;;;13.32;9.20;;;;;;;11.29;100.00;101115.63;5044057;28;20464;-52
2023/08/28 03:49:51;;;;;;;13.80;8.60;;;;;;;11.28;100.00;101111.25;5040480;28;20394;-51
2023/08/28 03:52:16;;;;;;;9.68;8.35;;;;;;;11.30;100.00;101111.97;5041352;28;20025;-54
2023/08/28 03:54:41;;;;;;;8.93;8.02;;;;;;;11.30;100.00;101111.97;5046011;28;20071;-55
2023/08/28 03:57:07;;;;;;;11.80;8.27;;;;;;;11.30;100.00;101119.13;5043180;28;20125;-53
2023/08/28 03:59:33;;;;;;;11.55;8.40;;;;;;;11.32;100.00;101132.31;5046412;28;20064;-52
2023/08/28 04:02:03;;;;;;;9.13;8.07;;;;;;;11.32;100.00;101134.97;5041160;28;20048;-52
2023/08/28 04:04:28;;;;;;;11.75;8.80;;;;;;;11.34;100.00;101135.69;5046208;28;20051;-52
2023/08/28 04:06:53;;;;;;;12.25;9.07;;;;;;;11.34;100.00;101135.69;5046036;28;20021;-54
2023/08/28 04:09:20;;;;;;;11.13;8.73;;;;;;;11.34;100.00;101127.72;5045334;28;20414;-51
2023/08/28 04:11:45;;;;;;;11.73;9.18;;;;;;;11.37;100.00;101141.63;5044018;28;20029;-54
2023/08/28 04:14:10;;;;;;;10.27;9.00;;;;;;;11.38;100.00;101140.66;5045037;28;20032;-54
2023/08/28 04:16:36;;;;;;;12.25;9.45;;;;;;;11.42;100.00;101139.50;5047107;28;20021;-52
2023/08/28 04:19:01;;;;;;;13.02;9.95;;;;;;;11.44;100.00;101134.03;5038454;28;20021;-52
2023/08/28 04:21:26;;;;;;;10.43;9.35;;;;;;;11.47;100.00;101137.31;5041406;28;20112;-53
2023/08/28 04:23:52;;;;;;;11.93;9.82;;;;;;;11.51;100.00;101137.06;5045013;28;20417;-51
2023/08/28 04:26:17;;;;;;;11.38;10.20;;;;;;;11.53;100.00;101140.47;5043900;28;20025;-53
2023/08/28 04:28:42;;;;;;;11.75;10.35;;;;;;;11.57;100.00;101148.09;5043653;28;20028;-52
2023/08/28 04:31:09;;;;;;;12.52;11.10;;;;;;;11.57;100.00;101145.44;5045191;28;20109;-54
2023/08/28 04:33:34;;;;;;;14.15;10.02;;;;;;;11.60;100.00;101142.53;5035090;28;20057;-53
2023/08/28 04:36:00;;;;;;;12.30;10.48;;;;;;;11.63;100.00;101146.78;5046635;28;20060;-54
2023/08/28 04:38:25;;;;;;;11.95;9.65;;;;;;;11.65;100.00;101143.03;5049247;28;20427;-52
2023/08/28 04:40:50;;;;;;;13.88;9.85;;;;;;;11.66;100.00;101152.72;5036514;28;20033;-53
2023/08/28 04:43:16;;;;;;;11.55;10.20;;;;;;;11.70;100.00;101150.66;5039954;28;20128;-53
2023/08/28 04:45:41;;;;;;;11.60;9.60;;;;;;;11.73;100.00;101145.13;5050610;28;20032;-55
2023/08/28 04:48:06;;;;;;;13.85;10.57;;;;;;;11.75;100.00;101147.66;5042804;28;20029;-53
2023/08/28 04:50:32;;;;;;;11.45;9.82;;;;;;;11.77;100.00;101149.22;5041370;28;20400;-54
2023/08/28 04:52:57;;;;;;;13.80;10.65;;;;;;;11.80;100.00;101134.84;5043156;28;20078;-53
2023/08/28 04:55:22;;;;;;;15.02;10.63;;;;;;;11.82;100.00;101127.59;5042216;28;20032;-53
2023/08/28 04:57:48;;;;;;;12.65;10.25;;;;;;;11.85;100.00;101130.00;5046134;28;20060;-55
2023/08/28 05:00:13;;;;;;;12.98;9.88;;;;;;;11.86;100.00;101121.06;5038854;28;20125;-53
2023/08/28 05:02:39;;;;;;;12.00;10.80;;;;;;;11.83;100.00;101115.97;5040643;28;20029;-55
2023/08/28 05:05:04;;;;;;;15.52;9.60;;;;;;;11.92;100.00;101130.41;5043040;28;20025;-52
2023/08/28 05:07:30;;;;;;;11.40;10.18;;;;;;;11.96;100.00;101121.25;5045893;28;20041;-54
2023/08/28 05:09:55;;;;;;;10.40;9.40;;;;;;;11.95;100.00;101117.72;5045722;28;20028;-52
2023/08/28 05:12:20;;;;;;;11.32;9.77;;;;;;;12.01;100.00;101121.72;5042025;28;20081;-53
2023/08/28 05:14:46;;;;;;;11.27;10.15;;;;;;;12.03;100.00;101112.63;5042719;28;20060;-52
2023/08/28 05:17:11;;;;;;;11.70;10.43;;;;;;;12.09;100.00;101118.44;5041529;28;20037;-52
2023/08/28 05:19:36;;;;;;;10.90;9.35;;;;;;;12.11;100.00;101114.72;5046269;28;20120;-53
2023/08/28 05:22:01;;;;;;;14.18;9.68;;;;;;;12.14;100.00;101114.47;5044182;28;20100;-54
2023/08/28 05:24:27;;;;;;;16.02;10.15;;;;;;;12.19;100.00;101112.28;5042505;28;20025;-52
2023/08/28 05:26:52;;;;;;;13.30;10.52;;;;;;;12.24;100.00;101113.72;5047117;28;20119;-51
2023/08/28 05:29:17;;;;;;;11.57;10.38;;;;;;;12.27;100.00;101116.97;5049639;28;20040;-54
2023/08/28 05:31:43;;;;;;;12.35;10.30;;;;;;;12.32;100.00;101127.28;5046314;28;20448;-53
2023/08/28 05:34:08;;;;;;;11.02;9.63;;;;;;;12.36;100.00;101115.44;5047149;28;20100;-52
2023/08/28 05:36:34;;;;;;;12.32;10.10;;;;;;;12.41;100.00;101118.56;5043585;28;20119;-52
2023/08/28 05:38:59;;;;;;;11.50;9.82;;;;;;;12.44;100.00;101112.13;5044545;28;20025;-54
2023/08/28 05:41:24;;;;;;;11.65;10.13;;;;;;;12.47;100.00;101103.91;5051654;28;20044;-52
2023/08/28 05:43:50;;;;;;;11.55;10.27;;;;;;;12.50;100.00;101104.50;5045449;28;20095;-52
2023/08/28 05:46:15;;;;;;;12.50;9.52;;;;;;;12.53;100.00;101100.75;5045327;28;20028;-52
2023/08/28 05:48:40;;;;;;;11.02;9.90;;;;;;;12.54;100.00;101105.09;5047690;28;20119;-52
2023/08/28 05:51:06;;;;;;;10.82;9.65;;;;;;;12.55;100.00;101107.63;5044834;28;20147;-52
2023/08/28 05:53:32;;;;;;;15.90;11.27;;;;;;;12.58;100.00;101117.22;5047621;28;20110;-54
2023/08/28 05:55:57;;;;;;;12.07;10.77;;;;;;;12.62;100.00;101125.78;5045388;28;20395;-54
2023/08/28 05:58:23;;;;;;;13.07;10.20;;;;;;;12.65;100.00;101122.88;5049499;28;20025;-52
2023/08/28 06:00:48;;;;;;;14.00;10.40;;;;;;;12.65;100.00;101121.06;5045760;28;20037;-52
2023/08/28 06:03:13;;;;;;;14.27;10.05;;;;;;;12.68;100.00;101120.81;5045688;28;20521;-52
2023/08/28 06:05:39;;;;;;;12.55;10.77;;;;;;;12.69;100.00;101117.19;5044226;28;20021;-51
2023/08/28 06:08:05;;;;;;;14.10;10.40;;;;;;;12.72;100.00;101116.06;5046527;28;20505;-54
2023/08/28 06:10:31;;;;;;;14.75;10.95;;;;;;;12.71;100.00;101117.91;5049507;28;20040;-50
2023/08/28 06:12:57;;;;;;;11.63;10.43;;;;;;;12.75;100.00;101116.66;5049726;28;20051;-51
2023/08/28 06:15:22;;;;;;;11.50;10.38;;;;;;;12.77;100.00;101117.41;5037236;28;20033;-52
2023/08/28 06:17:51;;;;;;;11.90;10.75;;;;;;;12.80;100.00;101110.97;5042321;28;20376;-53
2023/08/28 06:20:17;;;;;;;11.98;10.60;;;;;;;12.83;100.00;101109.88;5041093;28;20360;-51
2023/08/28 06:22:43;;;;;;;14.52;11.15;;;;;;;12.86;100.00;101115.81;5038936;28;20503;-49
2023/08/28 06:25:09;;;;;;;13.80;11.13;;;;;;;12.88;100.00;101116.53;5045585;28;20021;-50
2023/08/28 06:27:34;;;;;;;11.73;10.63;;;;;;;12.93;100.00;101116.16;5045416;28;20476;-49
2023/08/28 06:29:59;;;;;;;13.20;11.63;;;;;;;12.96;100.00;101115.91;5043234;28;20037;-52
2023/08/28 06:32:25;;;;;;;12.45;11.13;;;;;;;13.01;100.00;101123.53;5040188;28;20078;-50
2023/08/28 06:34:50;;;;;;;13.73;12.35;;;;;;;13.04;100.00;101124.13;5047561;28;20490;-51
2023/08/28 06:37:15;;;;;;;16.52;12.32;;;;;;;13.09;100.00;101126.38;5046244;28;20509;-51
2023/08/28 06:39:41;;;;;;;15.45;12.35;;;;;;;13.16;100.00;101126.75;5050666;28;20479;-50
2023/08/28 06:42:07;;;;;;;13.45;12.07;;;;;;;13.22;100.00;101119.09;5045723;28;20061;-50
2023/08/28 06:44:32;;;;;;;15.40;12.20;;;;;;;13.28;100.00;101123.03;5047118;28;20022;-52
2023/08/28 06:46:57;;;;;;;14.77;13.07;;;;;;;13.38;100.00;101118.66;5049229;28;20059;-51
2023/08/28 06:49:23;;;;;;;15.95;13.07;;;;;;;13.49;100.00;101115.94;5050731;28;20017;-51
2023/08/28 06:51:48;;;;;;;15.07;13.55;;;;;;;13.64;100.00;101124.47;5049266;28;20064;-50
2023/08/28 06:54:14;;;;;;;14.38;12.68;;;;;;;13.74;100.00;101137.88;5048886;28;20075;-51
2023/08/28 06:56:39;;;;;;;15.10;13.25;;;;;;;13.85;100.00;101139.63;5050857;28;20078;-51
2023/08/28 06:59:04;;;;;;;14.82;12.30;;;;;;;13.95;100.00;101145.84;5054159;28;20036;-50
2023/08/28 07:01:29;;;;;;;13.57;12.02;;;;;;;14.05;100.00;101140.56;5051407;28;20029;-51
2023/08/28 07:03:55;;;;;;;14.95;12.05;;;;;;;14.14;100.00;101141.59;5050057;28;20037;-50
2023/08/28 07:06:20;;;;;;;14.57;11.48;;;;;;;14.21;100.00;101146.28;5044800;28;20017;-50
2023/08/28 07:08:46;;;;;;;12.20;10.98;;;;;;;14.29;100.00;101150.09;5050314;28;20502;-51
2023/08/28 07:11:11;;;;;;;18.70;11.25;;;;;;;14.37;100.00;101150.25;5043300;28;20028;-50
2023/08/28 07:13:37;;;;;;;14.30;11.38;;;;;;;14.42;100.00;101161.38;5044629;28;20383;-52
2023/08/28 07:16:02;;;;;;;13.57;10.32;;;;;;;14.54;100.00;101168.34;5041457;28;20360;-53
2023/08/28 07:18:28;;;;;;;16.98;10.95;;;;;;;14.68;100.00;101161.78;5048871;28;20056;-51
2023/08/28 07:20:54;;;;;;;13.48;11.15;;;;;;;14.89;100.00;101161.72;5040050;28;20075;-50
2023/08/28 07:23:21;;;;;;;12.90;10.48;;;;;;;15.17;100.00;101154.72;5041862;28;20033;-51
2023/08/28 07:25:46;;;;;;;10.15;9.07;;;;;;;15.46;100.00;101164.56;5040922;28;20097;-50
2023/08/28 07:28:11;;;;;;;10.63;9.52;;;;;;;15.78;100.00;101158.06;5041495;28;20551;-52
2023/08/28 07:30:37;;;;;;;11.13;9.25;;;;;;;16.05;100.00;101149.28;5047986;28;20051;-51
2023/08/28 07:33:03;;;;;;;11.35;9.23;;;;;;;16.31;100.00;101147.78;5044800;28;20026;-50
2023/08/28 07:35:34;;;;;;;12.00;9.02;;;;;;;16.68;100.00;101142.34;5050936;28;20489;-50
2023/08/28 07:38:01;;;;;;;8.85;7.95;;;;;;;17.06;100.00;101140.44;5046956;28;20025;-50
2023/08/28 07:40:26;;;;;;;7.95;7.13;;;;;;;17.31;100.00;101141.50;5051867;28;20032;-50
2023/08/28 07:42:52;;;;;;;9.75;7.20;;;;;;;17.54;100.00;101132.97;5046760;28;20760;-49
2023/08/28 07:45:17;;;;;;;7.93;7.10;;;;;;;17.63;100.00;101144.63;5041256;28;20025;-50
2023/08/28 07:47:43;;;;;;;8.05;7.25;;;;;;;17.75;100.00;101143.34;5042770;28;21923;-50
2023/08/28 07:50:08;;;;;;;8.18;7.20;;;;;;;17.87;100.00;101142.13;5042170;28;20043;-50
2023/08/28 07:52:33;;;;;;;7.28;6.57;;;;;;;17.93;100.00;101146.03;5043463;28;20426;-50
2023/08/28 07:54:59;;;;;;;16.80;7.30;;;;;;;18.02;100.00;101144.22;5046319;28;20025;-51
2023/08/28 07:57:24;;;;;;;7.28;6.55;;;;;;;18.07;100.00;101147.31;5055085;28;20021;-50
2023/08/28 07:59:49;;;;;;;8.20;6.68;;;;;;;18.12;99.98;101142.28;5046425;28;20123;-49
2023/08/28 08:02:15;;;;;;;7.28;6.57;;;;;;;18.16;100.00;101143.63;5047152;28;20117;-50
2023/08/28 08:04:40;;;;;;;7.82;6.07;;;;;;;18.18;98.08;101143.47;5042548;28;20494;-50
2023/08/28 08:07:05;;;;;;;9.05;6.20;;;;;;;18.24;97.41;101141.00;5038614;28;20041;-51
2023/08/28 08:09:31;;;;;;;8.13;6.47;;;;;;;18.27;98.27;101146.06;5039311;28;20479;-50
2023/08/28 08:11:56;;;;;;;8.05;5.90;;;;;;;18.27;97.68;101153.28;5035572;28;20032;-50
2023/08/28 08:14:22;;;;;;;7.78;6.95;;;;;;;18.27;97.64;101148.75;5032694;28;20033;-49
2023/08/28 08:16:47;;;;;;;6.30;5.70;;;;;;;18.26;97.47;101144.34;5036903;28;20029;-51
2023/08/28 08:19:12;;;;;;;6.63;5.18;;;;;;;18.22;95.99;101148.38;5040037;28;20029;-54
2023/08/28 08:21:38;;;;;;;5.70;5.15;;;;;;;18.20;96.23;101145.03;5032757;28;20029;-50
2023/08/28 08:24:03;;;;;;;8.15;5.18;;;;;;;18.27;97.93;101147.91;5036031;28;20029;-50
2023/08/28 08:26:29;;;;;;;8.77;5.80;;;;;;;18.26;96.04;101151.59;5038323;28;20052;-49
2023/08/28 08:28:54;;;;;;;7.22;5.72;;;;;;;18.19;96.82;101150.56;5042095;28;20025;-51
2023/08/28 08:31:20;;;;;;;11.95;5.75;;;;;;;18.16;96.26;101151.69;5042534;28;20033;-50
2023/08/28 08:33:45;;;;;;;8.35;5.55;;;;;;;18.12;96.58;101151.19;5049317;28;20030;-52
2023/08/28 08:36:14;;;;;;;7.00;6.18;;;;;;;18.20;97.03;101157.59;5044062;28;20068;-50
2023/08/28 08:38:40;;;;;;;6.70;6.10;;;;;;;18.21;95.79;101168.19;5046330;28;20056;-51
2023/08/28 08:41:07;;;;;;;8.40;5.65;;;;;;;18.18;95.91;101168.50;5043521;28;20052;-49
2023/08/28 08:43:33;;;;;;;5.88;5.35;;;;;;;18.21;96.91;101170.06;5045607;28;20044;-50
2023/08/28 08:46:07;;;;;;;6.43;5.82;;;;;;;18.17;95.13;101169.53;5041752;28;20032;-50
2023/08/28 08:48:36;;;;;;;9.13;4.95;;;;;;;18.27;96.00;101164.88;5044192;28;20545;-51
2023/08/28 08:51:06;;;;;;;5.30;4.80;;;;;;;18.38;95.10;101160.22;5041358;28;20083;-50
2023/08/28 08:53:45;;;;;;;5.20;4.72;;;;;;;18.43;94.90;101171.31;5040046;28;20028;-50
2023/08/28 08:56:15;;;;;;;6.85;5.05;;;;;;;18.53;95.07;101166.66;5048184;28;20182;-51
2023/08/28 08:58:41;;;;;;;6.88;5.10;;;;;;;18.58;93.48;101164.31;5048414;28;20387;-50
2023/08/28 09:01:07;;;;;;;5.97;4.80;;;;;;;18.63;93.64;101169.22;5047024;28;20084;-50
2023/08/28 09:03:32;;;;;;;8.75;4.82;;;;;;;18.60;90.09;101167.72;5044127;28;20096;-50
2023/08/28 09:05:59;;;;;;;4.43;4.03;;;;;;;18.67;91.40;101174.13;5047723;28;20056;-50
2023/08/28 09:08:25;;;;;;;7.43;3.58;;;;;;;18.77;90.88;101162.38;5045090;28;20025;-51
2023/08/28 09:10:51;;;;;;;4.43;3.58;;;;;;;18.90;91.92;101165.50;5043609;28;20482;-51
2023/08/28 09:13:16;;;;;;;3.78;3.30;;;;;;;18.99;88.62;101169.03;5045725;28;20097;-50
2023/08/28 09:15:41;;;;;;;4.38;3.05;;;;;;;19.10;87.79;101162.47;5047496;28;20068;-50
2023/08/28 09:18:07;;;;;;;4.80;3.40;;;;;;;19.14;91.56;101148.53;5046725;28;20044;-51
2023/08/28 09:20:32;;;;;;;5.55;3.22;;;;;;;19.26;89.54;101156.28;5026473;28;20032;-51
2023/08/28 09:22:58;;;;;;;5.78;3.25;;;;;;;19.43;89.67;101157.97;5043693;28;20394;-53
2023/08/28 09:25:24;;;;;;;5.03;3.30;;;;;;;19.50;87.71;101155.44;5036968;28;20113;-50
2023/08/28 09:27:52;;;;;;;3.92;2.95;;;;;;;19.64;86.12;101149.38;5039102;28;20578;-51
2023/08/28 09:30:38;;;;;;;3.00;2.80;;;;;;;19.72;87.03;101154.78;5037873;28;20674;-51
2023/08/28 09:33:06;;;;;;;4.35;2.40;;;;;;;19.85;83.86;101162.38;5038845;28;20885;-51
2023/08/28 09:35:39;;;;;;;2.63;2.42;;;;;;;19.91;83.72;101161.66;5043697;28;20025;-52
2023/08/28 09:38:05;;;;;;;4.15;2.70;;;;;;;20.06;82.94;101161.81;5052597;28;20030;-52
2023/08/28 09:40:32;;;;;;;2.97;2.53;;;;;;;20.12;81.31;101166.53;5049616;28;20032;-53
2023/08/28 09:43:00;;;;;;;4.35;2.72;;;;;;;20.18;78.62;101170.38;5042172;28;20052;-52
2023/08/28 09:45:31;;;;;;;6.38;3.03;;;;;;;20.25;79.97;101168.69;5044285;28;20025;-51
2023/08/28 09:47:56;;;;;;;3.53;3.20;;;;;;;20.33;79.56;101165.97;5041416;28;20371;-51
2023/08/28 09:50:28;;;;;;;6.95;3.38;;;;;;;20.49;81.13;101164.22;5046861;28;20013;-51
2023/08/28 09:52:53;;;;;;;4.00;3.33;;;;;;;20.73;78.27;101174.06;5044702;28;20402;-51
2023/08/28 09:55:19;;;;;;;3.30;2.80;;;;;;;21.04;79.68;101167.84;5045395;28;20108;-52
2023/08/28 09:57:44;;;;;;;3.78;2.63;;;;;;;21.32;78.44;101170.00;5046523;28;20022;-51
2023/08/28 10:00:11;;;;;;;2.20;2.10;;;;;;;21.65;75.01;101167.06;5043352;28;20039;-52
2023/08/28 10:02:38;;;;;;;6.30;2.42;;;;;;;21.89;73.76;101166.00;5055848;28;20021;-52
2023/08/28 10:05:05;;;;;;;5.65;3.10;;;;;;;21.99;72.48;101161.97;5055812;28;20028;-51
2023/08/28 10:07:31;;;;;;;4.70;2.83;;;;;;;22.23;72.06;101159.19;5049902;28;20028;-51
2023/08/28 10:10:01;;;;;;;5.00;2.15;;;;;;;22.35;73.56;101161.28;5051159;28;20037;-51
2023/08/28 10:12:29;;;;;;;1.92;1.70;;;;;;;22.72;69.46;101170.28;5043495;28;20027;-51
2023/08/28 10:14:56;;;;;;;2.03;1.80;;;;;;;23.14;67.17;101164.31;5048099;28;20459;-51
2023/08/28 10:17:25;;;;;;;1.95;1.75;;;;;;;23.27;65.97;101156.31;5043568;28;20029;-51
2023/08/28 10:20:03;;;;;;;2.90;2.17;;;;;;;23.45;66.02;101155.88;5042649;28;20378;-51
2023/08/28 10:22:31;;;;;;;4.75;2.22;;;;;;;23.62;64.92;101148.28;5045410;28;20021;-50
2023/08/28 10:24:58;;;;;;;5.15;2.05;;;;;;;23.93;65.33;101144.34;5042461;28;20021;-51
2023/08/28 10:27:23;;;;;;;2.97;1.20;;;;;;;24.15;63.41;101148.69;5045758;28;20025;-50
2023/08/28 10:29:49;;;;;;;1.63;1.15;;;;;;;24.26;60.72;101149.97;5054899;28;20040;-52
2023/08/28 10:32:15;;;;;;;1.58;1.25;;;;;;;24.30;60.25;101150.44;5043679;28;20076;-55
2023/08/28 10:34:42;;;;;;;2.75;1.55;;;;;;;24.19;57.53;101151.81;5044160;28;20483;-53
2023/08/28 10:37:08;;;;;;;1.63;1.30;;;;;;;24.32;61.38;101151.91;5052196;28;20435;-52
2023/08/28 10:39:39;;;;;;;2.22;1.15;;;;;;;24.13;60.11;101153.47;5050702;28;20071;-53
2023/08/28 10:42:05;;;;;;;2.50;1.63;;;;;;;24.12;60.01;101150.97;5049158;28;20100;-54
2023/08/28 10:44:31;;;;;;;2.75;1.67;;;;;;;24.10;60.64;101153.00;5044997;28;20364;-52
2023/08/28 10:46:57;;;;;;;2.47;2.20;;;;;;;24.06;61.12;101154.47;5048441;28;20132;-51
2023/08/28 10:49:22;;;;;;;3.42;2.30;;;;;;;23.93;60.40;101152.50;5051076;28;20530;-55
2023/08/28 10:51:47;;;;;;;3.13;2.10;;;;;;;23.83;61.10;101150.97;5048922;28;20028;-55
2023/08/28 10:54:13;;;;;;;2.95;1.90;;;;;;;23.77;60.82;101149.03;5046196;28;20033;-52
2023/08/28 10:56:39;;;;;;;2.92;2.42;;;;;;;23.55;60.66;101148.22;5051122;28;20032;-54
2023/08/28 10:59:25;;;;;;;2.92;2.22;;;;;;;23.59;63.97;101144.06;5046830;28;20059;-52
2023/08/28 11:01:55;;;;;;;7.78;2.42;;;;;;;23.53;64.54;101144.88;5045512;28;20033;-53
2023/08/28 11:04:22;;;;;;;4.03;2.33;;;;;;;23.55;62.58;101147.38;5048198;28;20024;-55
2023/08/28 11:06:48;;;;;;;3.20;2.05;;;;;;;23.42;64.37;101145.41;5038423;28;20057;-54
2023/08/28 11:09:28;;;;;;;2.88;1.90;;;;;;;23.49;63.54;101145.47;5043580;28;20517;-50
2023/08/28 11:11:57;;;;;;;1.90;1.80;;;;;;;23.48;60.44;101149.19;5042432;28;20095;-51